Time;durP1;ratioP1;P1;durP2;ratioP2;P2;SDS_P1;SDS_P2;PMS_P1;PMS_P2;Temp;Humidity;BMP_temperature;BMP_pressure;BME280_temperature;BME280_humidity;BME280_pressure;Samples;Min_cycle;Max_cycle;Signal;HPM_P1;HPM_P2
2023/12/30 05:00:35;;;;;;;1.25;0.50;;;6.60;99.90;;;;;;5756620;23;20235;-72
2023/12/30 05:03:02;;;;;;;2.08;0.40;;;6.60;99.90;;;;;;4944596;29;20216;-73
2023/12/30 05:05:28;;;;;;;1.88;0.82;;;6.50;99.90;;;;;;4945126;28;20293;-72
2023/12/30 05:07:55;;;;;;;0.73;0.73;;;6.60;99.90;;;;;;4942931;29;20212;-71
2023/12/30 05:10:22;;;;;;;0.80;0.80;;;6.60;99.90;;;;;;4938782;28;20687;-72
2023/12/30 05:12:49;;;;;;;0.93;0.93;;;6.60;99.90;;;;;;4945557;28;20236;-70
2023/12/30 05:15:16;;;;;;;3.30;0.60;;;6.60;99.90;;;;;;4937743;29;20219;-72
2023/12/30 05:17:45;;;;;;;1.15;0.57;;;6.60;99.90;;;;;;4940662;29;20236;-72
2023/12/30 05:20:16;;;;;;;6.45;1.10;;;6.60;99.90;;;;;;4947062;29;20216;-72
2023/12/30 05:22:43;;;;;;;2.70;0.75;;;6.60;99.90;;;;;;4937811;28;20255;-73
2023/12/30 05:25:10;;;;;;;3.60;0.60;;;6.60;99.90;;;;;;4942374;29;20240;-72
2023/12/30 05:27:37;;;;;;;6.68;1.33;;;6.60;99.90;;;;;;4945056;29;20288;-71
2023/12/30 05:30:05;;;;;;;8.30;1.33;;;6.60;99.90;;;;;;4947007;28;20259;-69
2023/12/30 05:32:32;;;;;;;5.35;1.00;;;6.50;99.90;;;;;;4950950;29;20308;-70
2023/12/30 05:35:00;;;;;;;0.50;0.50;;;6.50;99.90;;;;;;4943137;28;20233;-71
2023/12/30 05:37:27;;;;;;;1.10;0.60;;;6.50;99.90;;;;;;4949286;29;20212;-71
2023/12/30 05:39:53;;;;;;;5.60;0.85;;;6.50;99.90;;;;;;4949316;28;20240;-71
2023/12/30 05:42:20;;;;;;;0.45;0.43;;;6.50;99.90;;;;;;4940454;29;20240;-71
2023/12/30 05:44:47;;;;;;;0.68;0.50;;;6.50;99.90;;;;;;4944209;28;20278;-72
2023/12/30 05:47:14;;;;;;;1.40;0.75;;;6.50;99.90;;;;;;4941270;29;20289;-70
2023/12/30 05:49:41;;;;;;;0.50;0.50;;;6.50;99.90;;;;;;4947163;28;20208;-70
2023/12/30 05:52:09;;;;;;;1.63;0.77;;;6.50;99.90;;;;;;4945484;28;20584;-70
2023/12/30 05:54:36;;;;;;;0.98;0.70;;;6.50;99.90;;;;;;4938910;29;20228;-70
2023/12/30 05:57:03;;;;;;;1.30;1.23;;;6.40;99.90;;;;;;4939660;29;20718;-70
2023/12/30 05:59:29;;;;;;;2.35;1.00;;;6.40;99.90;;;;;;4941576;29;20232;-69
2023/12/30 06:01:58;;;;;;;0.45;0.45;;;6.40;99.90;;;;;;4938732;29;20241;-70
2023/12/30 06:04:25;;;;;;;4.55;1.70;;;6.40;99.90;;;;;;4943464;29;20295;-71
2023/12/30 06:06:51;;;;;;;1.05;1.05;;;6.30;99.90;;;;;;4941840;28;20209;-71
2023/12/30 06:09:19;;;;;;;0.70;0.70;;;6.30;99.90;;;;;;4939189;28;20213;-70
2023/12/30 06:11:46;;;;;;;1.85;0.90;;;6.30;99.90;;;;;;4943148;29;20575;-70
2023/12/30 06:14:13;;;;;;;0.55;0.55;;;6.30;99.90;;;;;;4941501;29;20212;-70
2023/12/30 06:16:39;;;;;;;4.15;1.00;;;6.30;99.90;;;;;;4937236;29;20216;-71
2023/12/30 06:19:06;;;;;;;4.50;0.68;;;6.40;99.90;;;;;;4943582;29;20347;-70
2023/12/30 06:21:33;;;;;;;0.47;0.40;;;6.40;99.90;;;;;;4941928;29;20247;-71
2023/12/30 06:24:00;;;;;;;1.73;0.70;;;6.40;99.90;;;;;;4943217;28;20226;-70
2023/12/30 06:26:27;;;;;;;4.32;2.28;;;6.40;99.90;;;;;;4936219;28;20686;-71
2023/12/30 06:28:54;;;;;;;1.33;0.70;;;6.40;99.90;;;;;;4943572;28;20686;-71
2023/12/30 06:31:21;;;;;;;9.57;1.38;;;6.40;99.90;;;;;;4941613;28;20240;-71
2023/12/30 06:33:47;;;;;;;1.00;1.00;;;6.40;99.90;;;;;;4941742;29;20231;-71
2023/12/30 06:36:20;;;;;;;1.55;0.85;;;6.40;99.90;;;;;;4934949;29;20216;-71
2023/12/30 06:38:47;;;;;;;3.35;0.95;;;6.40;99.90;;;;;;4947205;28;20303;-69
2023/12/30 06:41:14;;;;;;;9.18;0.73;;;6.40;99.90;;;;;;4943125;28;20239;-71
2023/12/30 06:43:42;;;;;;;2.92;0.70;;;6.40;99.90;;;;;;4948702;29;20221;-70
2023/12/30 06:46:09;;;;;;;1.10;0.90;;;6.50;99.90;;;;;;4941489;28;20217;-71
2023/12/30 06:48:36;;;;;;;0.70;0.70;;;6.50;99.90;;;;;;4939689;29;20209;-71
2023/12/30 06:51:02;;;;;;;1.23;0.65;;;6.40;99.90;;;;;;4940565;29;20244;-71
2023/12/30 06:53:31;;;;;;;3.13;0.70;;;6.50;99.90;;;;;;4942771;28;20234;-71
2023/12/30 06:56:00;;;;;;;1.30;0.52;;;6.50;99.90;;;;;;4942435;29;20620;-71
2023/12/30 06:58:27;;;;;;;2.00;0.73;;;6.50;99.90;;;;;;4942388;29;20241;-70
2023/12/30 07:00:55;;;;;;;3.63;0.73;;;6.50;99.90;;;;;;4940291;28;20251;-70
2023/12/30 07:03:22;;;;;;;1.38;0.75;;;6.50;99.90;;;;;;4940195;29;20209;-71
2023/12/30 07:05:50;;;;;;;8.45;0.93;;;6.60;99.90;;;;;;4941285;29;20308;-71
2023/12/30 07:08:17;;;;;;;6.32;1.05;;;6.60;99.90;;;;;;4940251;29;20232;-71
2023/12/30 07:10:43;;;;;;;0.93;0.85;;;6.60;99.90;;;;;;4942644;28;20252;-71
2023/12/30 07:13:12;;;;;;;1.15;0.47;;;6.60;99.90;;;;;;4933215;29;20217;-71
2023/12/30 07:15:38;;;;;;;3.35;1.05;;;6.60;99.90;;;;;;4942670;28;20211;-70
2023/12/30 07:18:07;;;;;;;2.35;0.45;;;6.60;99.90;;;;;;4935933;28;20239;-71
2023/12/30 07:20:35;;;;;;;0.60;0.60;;;6.70;99.90;;;;;;4941084;28;20251;-69
2023/12/30 07:23:04;;;;;;;1.95;0.82;;;6.70;99.90;;;;;;4940383;29;20299;-70
2023/12/30 07:25:30;;;;;;;1.75;0.63;;;6.70;99.90;;;;;;4943533;29;20311;-69
2023/12/30 07:27:57;;;;;;;1.33;1.02;;;6.70;99.90;;;;;;4940233;28;20220;-69
2023/12/30 07:30:24;;;;;;;0.45;0.45;;;6.60;99.90;;;;;;4944187;28;20583;-71
2023/12/30 07:32:50;;;;;;;0.93;0.40;;;6.60;99.90;;;;;;4944683;28;20216;-71
2023/12/30 07:35:18;;;;;;;1.05;0.75;;;6.60;99.90;;;;;;4944597;29;20567;-71
2023/12/30 07:37:46;;;;;;;15.63;1.42;;;6.60;99.90;;;;;;4946742;28;20210;-71
2023/12/30 07:40:14;;;;;;;1.00;0.93;;;6.70;99.90;;;;;;4945117;29;20820;-71
2023/12/30 07:42:41;;;;;;;1.67;0.60;;;6.70;99.90;;;;;;4942313;29;20204;-71
2023/12/30 07:45:09;;;;;;;0.43;0.43;;;6.70;99.90;;;;;;4948795;29;20221;-71
2023/12/30 07:47:35;;;;;;;2.60;0.63;;;6.70;99.90;;;;;;4943563;28;20215;-71
2023/12/30 07:50:02;;;;;;;2.25;1.25;;;6.80;99.90;;;;;;4949748;28;20208;-70
2023/12/30 07:52:30;;;;;;;2.90;0.73;;;6.80;99.90;;;;;;4950434;28;20867;-70
2023/12/30 07:54:57;;;;;;;1.30;0.77;;;6.80;99.90;;;;;;4945292;28;20223;-71
2023/12/30 07:57:23;;;;;;;0.93;0.60;;;6.80;99.90;;;;;;4941667;29;20295;-71
2023/12/30 07:59:50;;;;;;;8.07;0.57;;;6.80;99.90;;;;;;4947804;28;20241;-71
2023/12/30 08:02:17;;;;;;;2.17;0.88;;;6.70;99.90;;;;;;4946448;29;20244;-71
2023/12/30 08:04:44;;;;;;;2.58;1.13;;;6.70;99.90;;;;;;4950857;29;20211;-71
2023/12/30 08:07:11;;;;;;;1.25;1.15;;;6.70;99.90;;;;;;4946484;28;20224;-71
2023/12/30 08:09:39;;;;;;;3.35;0.75;;;6.70;99.90;;;;;;4942536;28;20267;-71
2023/12/30 08:12:06;;;;;;;2.92;1.13;;;6.70;99.90;;;;;;4941909;29;20236;-71
2023/12/30 08:14:33;;;;;;;1.17;1.17;;;6.70;99.90;;;;;;4944247;28;20479;-71
2023/12/30 08:17:01;;;;;;;9.00;1.88;;;6.60;99.90;;;;;;4942282;28;20228;-71
2023/12/30 08:19:28;;;;;;;2.53;1.00;;;6.60;99.90;;;;;;4943802;28;20722;-71
2023/12/30 08:21:54;;;;;;;4.03;1.30;;;6.60;99.90;;;;;;4947687;29;20280;-71
2023/12/30 08:24:21;;;;;;;2.58;1.23;;;6.60;99.90;;;;;;4946199;29;20224;-71
2023/12/30 08:26:49;;;;;;;3.10;1.58;;;6.60;99.90;;;;;;4944731;28;20216;-71
2023/12/30 08:29:16;;;;;;;0.77;0.68;;;6.60;99.90;;;;;;4942837;29;20208;-72
2023/12/30 08:31:45;;;;;;;1.02;0.60;;;6.60;99.90;;;;;;4941054;28;20229;-71
2023/12/30 08:34:12;;;;;;;0.38;0.38;;;6.60;99.90;;;;;;4940639;29;20291;-71
2023/12/30 08:36:38;;;;;;;0.35;0.35;;;6.70;99.90;;;;;;4940564;29;20204;-71
2023/12/30 08:39:05;;;;;;;1.75;0.88;;;6.70;99.90;;;;;;4940811;28;20224;-71
2023/12/30 08:41:33;;;;;;;3.60;1.08;;;6.70;99.90;;;;;;4943265;29;20228;-68
2023/12/30 08:44:02;;;;;;;2.75;0.82;;;6.80;99.90;;;;;;4945858;29;20227;-72
2023/12/30 08:46:29;;;;;;;3.08;1.52;;;6.80;99.90;;;;;;4938778;28;20214;-71
2023/12/30 08:48:55;;;;;;;2.22;1.20;;;6.80;99.90;;;;;;4942140;29;20792;-72
2023/12/30 08:51:23;;;;;;;1.38;0.75;;;6.80;99.90;;;;;;4947050;29;20232;-71
2023/12/30 08:53:49;;;;;;;1.00;1.00;;;6.80;99.90;;;;;;4944308;28;20588;-72
2023/12/30 08:56:16;;;;;;;5.93;1.60;;;6.80;99.90;;;;;;4946012;28;20220;-71
2023/12/30 08:58:43;;;;;;;8.02;2.08;;;6.80;99.90;;;;;;4942056;28;20527;-71
2023/12/30 09:01:11;;;;;;;3.50;1.40;;;6.80;99.90;;;;;;4945771;29;20247;-71
2023/12/30 09:03:38;;;;;;;3.35;0.90;;;6.80;99.90;;;;;;4940594;28;20212;-72
2023/12/30 09:06:05;;;;;;;1.42;0.60;;;6.80;99.90;;;;;;4937578;29;20683;-72
2023/12/30 09:08:31;;;;;;;4.97;1.48;;;6.80;99.90;;;;;;4945388;29;20205;-71
2023/12/30 09:10:58;;;;;;;1.10;0.50;;;6.90;99.90;;;;;;4944346;29;20595;-72
2023/12/30 09:13:25;;;;;;;2.15;0.70;;;6.90;99.90;;;;;;4942699;28;20205;-71
2023/12/30 09:15:51;;;;;;;3.20;0.75;;;6.90;99.90;;;;;;4945082;28;20205;-71
2023/12/30 09:18:19;;;;;;;4.78;0.70;;;6.90;99.90;;;;;;4948120;28;20574;-71
2023/12/30 09:20:46;;;;;;;8.68;1.85;;;6.90;99.90;;;;;;4942374;28;20241;-71
2023/12/30 09:23:13;;;;;;;4.53;1.33;;;6.90;99.90;;;;;;4944184;28;20205;-71
2023/12/30 09:25:40;;;;;;;1.95;0.73;;;6.90;99.90;;;;;;4941924;28;20216;-71
2023/12/30 09:28:06;;;;;;;3.42;0.70;;;6.80;99.90;;;;;;4943771;29;20221;-72
2023/12/30 09:30:33;;;;;;;2.17;1.23;;;6.80;99.90;;;;;;4942550;28;20243;-71
2023/12/30 09:33:00;;;;;;;2.15;1.02;;;6.80;99.90;;;;;;4940533;29;20668;-71
2023/12/30 09:35:28;;;;;;;3.70;0.90;;;6.80;99.90;;;;;;4941707;29;20213;-71
2023/12/30 09:37:55;;;;;;;0.93;0.82;;;6.80;99.90;;;;;;4945865;28;20568;-71
2023/12/30 09:40:22;;;;;;;2.15;0.85;;;6.80;99.90;;;;;;4940865;29;20237;-70
2023/12/30 09:42:51;;;;;;;0.70;0.70;;;6.80;99.90;;;;;;4937870;29;20213;-71
2023/12/30 09:45:17;;;;;;;2.45;1.02;;;6.80;99.90;;;;;;4938157;29;20208;-71
2023/12/30 09:47:46;;;;;;;2.70;1.25;;;6.80;99.90;;;;;;4939517;29;20671;-73
2023/12/30 09:50:12;;;;;;;0.65;0.60;;;6.80;99.90;;;;;;4940065;28;20213;-72
2023/12/30 09:52:40;;;;;;;1.45;0.80;;;6.90;99.90;;;;;;4942155;28;20690;-72
2023/12/30 09:55:08;;;;;;;0.70;0.68;;;6.80;99.90;;;;;;4936566;28;20213;-72
2023/12/30 09:57:34;;;;;;;1.15;1.13;;;6.80;99.90;;;;;;4943420;29;20585;-72
2023/12/30 10:00:05;;;;;;;1.38;1.27;;;6.80;99.90;;;;;;4944720;29;20731;-72
2023/12/30 10:02:33;;;;;;;3.38;0.90;;;6.80;99.90;;;;;;4941338;29;20237;-73
2023/12/30 10:05:00;;;;;;;4.53;0.95;;;6.80;99.90;;;;;;4941395;28;20212;-73
2023/12/30 10:07:30;;;;;;;15.65;1.60;;;6.90;99.90;;;;;;4941289;29;20239;-73
2023/12/30 10:09:58;;;;;;;0.70;0.70;;;6.90;99.90;;;;;;4941948;29;20217;-70
2023/12/30 10:12:25;;;;;;;0.90;0.90;;;6.90;99.90;;;;;;4938679;29;20230;-73
2023/12/30 10:14:52;;;;;;;1.52;0.80;;;6.90;99.90;;;;;;4941227;29;20213;-73
2023/12/30 10:17:19;;;;;;;0.73;0.73;;;7.00;99.90;;;;;;4936434;29;20220;-71
2023/12/30 10:19:45;;;;;;;0.73;0.73;;;7.00;99.90;;;;;;4944739;28;20232;-72
2023/12/30 10:22:12;;;;;;;1.88;1.00;;;7.10;99.90;;;;;;4939622;28;20229;-70
2023/12/30 10:24:39;;;;;;;1.85;0.60;;;7.20;99.90;;;;;;4945676;28;20549;-73
2023/12/30 10:27:07;;;;;;;2.67;1.20;;;7.20;99.90;;;;;;4941426;28;20212;-71
2023/12/30 10:29:34;;;;;;;2.42;0.85;;;7.20;99.90;;;;;;4935575;29;20198;-70
2023/12/30 10:32:03;;;;;;;5.28;1.60;;;7.30;99.90;;;;;;4941367;28;20229;-70
2023/12/30 10:34:30;;;;;;;1.60;1.50;;;7.30;99.90;;;;;;4941047;28;20257;-70
2023/12/30 10:36:57;;;;;;;1.23;1.17;;;7.30;99.90;;;;;;4937802;29;20213;-70
2023/12/30 10:39:25;;;;;;;2.35;0.90;;;7.40;99.90;;;;;;4938751;28;20214;-71
2023/12/30 10:41:52;;;;;;;7.85;2.83;;;7.40;99.90;;;;;;4939383;29;20229;-71
2023/12/30 10:44:20;;;;;;;6.88;1.13;;;7.40;99.90;;;;;;4944760;29;20209;-71
2023/12/30 10:46:49;;;;;;;2.78;1.30;;;7.40;99.90;;;;;;4938390;29;20206;-70
2023/12/30 10:49:17;;;;;;;2.13;0.90;;;7.50;99.90;;;;;;4938256;29;20205;-70
2023/12/30 10:51:44;;;;;;;1.55;1.13;;;7.50;99.90;;;;;;4935848;29;20261;-70
2023/12/30 10:54:19;;;;;;;7.35;1.10;;;7.50;99.90;;;;;;4941007;29;20210;-70
2023/12/30 10:56:54;;;;;;;3.42;0.90;;;7.50;99.90;;;;;;4943852;29;20308;-71
2023/12/30 10:59:23;;;;;;;0.80;0.80;;;7.60;99.90;;;;;;4937399;29;20670;-72
2023/12/30 11:01:50;;;;;;;1.85;0.68;;;7.60;99.90;;;;;;4937558;29;20249;-72
2023/12/30 11:04:18;;;;;;;1.15;1.05;;;7.60;99.90;;;;;;4944156;29;20205;-71
2023/12/30 11:06:50;;;;;;;1.30;0.65;;;7.70;99.90;;;;;;4940325;28;20213;-71
2023/12/30 11:09:18;;;;;;;1.88;0.70;;;7.70;99.90;;;;;;4941650;29;20683;-71
2023/12/30 11:11:50;;;;;;;2.40;1.25;;;7.70;99.90;;;;;;4944802;28;20711;-71
2023/12/30 11:14:17;;;;;;;1.58;1.25;;;7.70;99.90;;;;;;4939177;29;20579;-71
2023/12/30 11:16:45;;;;;;;5.22;1.27;;;7.70;99.90;;;;;;4942674;28;20300;-71
2023/12/30 11:19:25;;;;;;;1.23;1.23;;;7.80;99.90;;;;;;4936511;29;20722;-70
2023/12/30 11:21:51;;;;;;;2.30;1.08;;;7.80;99.90;;;;;;4935664;29;20217;-71
2023/12/30 11:24:18;;;;;;;2.15;1.00;;;7.80;99.90;;;;;;4946629;28;20213;-70
2023/12/30 11:26:46;;;;;;;1.10;0.68;;;7.90;99.90;;;;;;4942908;28;20209;-71
2023/12/30 11:29:14;;;;;;;0.70;0.70;;;8.00;99.90;;;;;;4941146;28;20221;-70
2023/12/30 11:31:41;;;;;;;1.67;0.70;;;8.00;99.90;;;;;;4942972;28;20325;-70
2023/12/30 11:34:11;;;;;;;1.50;0.40;;;8.00;99.90;;;;;;4934938;29;20240;-70
2023/12/30 11:36:39;;;;;;;1.85;0.93;;;8.00;99.90;;;;;;4941679;29;20206;-71
2023/12/30 11:39:07;;;;;;;8.65;1.25;;;8.00;99.90;;;;;;4933469;28;20221;-70
2023/12/30 11:41:35;;;;;;;0.73;0.73;;;8.00;99.90;;;;;;4940906;28;20238;-70
2023/12/30 11:44:03;;;;;;;0.90;0.90;;;8.00;99.90;;;;;;4933656;29;20575;-71
2023/12/30 11:46:31;;;;;;;2.35;0.80;;;8.10;99.90;;;;;;4939110;28;20206;-71
2023/12/30 11:48:58;;;;;;;0.77;0.77;;;8.10;99.90;;;;;;4939576;28;20224;-72
2023/12/30 11:51:28;;;;;;;2.70;1.42;;;8.10;99.90;;;;;;4943240;29;20224;-71
2023/12/30 11:53:55;;;;;;;0.60;0.60;;;8.00;99.90;;;;;;4945219;29;20210;-71
2023/12/30 11:56:23;;;;;;;1.48;1.13;;;8.00;99.90;;;;;;4941525;29;20262;-71
2023/12/30 11:58:50;;;;;;;0.82;0.70;;;8.00;99.90;;;;;;4942649;29;20217;-71
2023/12/30 12:01:19;;;;;;;1.05;1.05;;;8.00;99.90;;;;;;4941293;29;20235;-72
2023/12/30 12:03:46;;;;;;;3.50;1.08;;;8.00;99.90;;;;;;4945709;28;20213;-71
2023/12/30 12:06:12;;;;;;;1.33;0.60;;;8.00;99.90;;;;;;4941042;28;20681;-72
2023/12/30 12:08:40;;;;;;;2.70;0.95;;;8.00;99.90;;;;;;4943754;28;20210;-71
2023/12/30 12:11:07;;;;;;;6.57;0.85;;;8.00;99.90;;;;;;4941934;28;20225;-70
2023/12/30 12:13:34;;;;;;;5.18;0.75;;;8.00;99.90;;;;;;4941536;28;20676;-71
2023/12/30 12:16:04;;;;;;;0.85;0.43;;;8.00;99.90;;;;;;4947211;28;20205;-72
2023/12/30 12:18:32;;;;;;;4.75;1.05;;;8.00;99.90;;;;;;4939051;29;20206;-72
2023/12/30 12:20:59;;;;;;;2.05;0.80;;;8.00;99.90;;;;;;4948289;28;20233;-72
2023/12/30 12:23:26;;;;;;;3.40;0.93;;;8.00;99.90;;;;;;4942143;29;20744;-72
2023/12/30 12:25:54;;;;;;;1.20;0.75;;;8.00;99.90;;;;;;4945912;29;20481;-72
2023/12/30 12:28:22;;;;;;;1.00;0.85;;;8.00;99.90;;;;;;4946678;29;20210;-71
2023/12/30 12:30:49;;;;;;;2.50;1.20;;;8.00;99.90;;;;;;4945935;28;20226;-71
2023/12/30 12:33:18;;;;;;;0.82;0.82;;;8.00;99.90;;;;;;4950103;28;20213;-72
2023/12/30 12:35:45;;;;;;;2.00;0.70;;;8.00;99.90;;;;;;4947291;28;20214;-72
2023/12/30 12:38:12;;;;;;;4.55;2.03;;;8.00;99.90;;;;;;4946640;29;20217;-69
2023/12/30 12:40:39;;;;;;;3.95;1.15;;;8.00;99.90;;;;;;4947971;29;20244;-69
2023/12/30 12:43:07;;;;;;;0.85;0.85;;;8.00;99.90;;;;;;4943066;28;20217;-69
2023/12/30 12:45:33;;;;;;;1.27;1.17;;;8.00;99.90;;;;;;4943759;29;20591;-70
2023/12/30 12:48:00;;;;;;;0.93;0.93;;;8.10;99.90;;;;;;4939121;28;20217;-70
2023/12/30 12:50:28;;;;;;;2.85;0.70;;;8.10;99.90;;;;;;4944856;29;20229;-70
2023/12/30 12:52:54;;;;;;;1.48;1.00;;;8.10;99.90;;;;;;4941192;29;20301;-70
2023/12/30 12:55:21;;;;;;;1.65;1.25;;;8.20;99.90;;;;;;4943831;29;20875;-70
2023/12/30 12:57:48;;;;;;;1.13;1.13;;;8.20;99.90;;;;;;4941697;28;20243;-69
2023/12/30 13:00:18;;;;;;;0.95;0.95;;;8.20;99.90;;;;;;4939456;29;20226;-70
2023/12/30 13:02:44;;;;;;;2.97;1.17;;;8.20;99.90;;;;;;4946954;29;20209;-69
2023/12/30 13:05:14;;;;;;;2.50;0.65;;;8.20;99.90;;;;;;4946614;29;20214;-70
2023/12/30 13:07:43;;;;;;;0.73;0.73;;;8.20;99.90;;;;;;4941123;29;20213;-70
2023/12/30 13:10:34;;;;;;;1.05;0.45;;;8.20;99.90;;;;;;4946885;29;20587;-70
2023/12/30 13:12:58;;;;;;;5.68;1.10;;;8.10;99.90;;;;;;4946348;29;20292;-70
2023/12/30 13:15:26;;;;;;;8.68;1.38;;;8.10;99.90;;;;;;4942689;29;20214;-70
2023/12/30 13:17:54;;;;;;;2.45;1.25;;;8.10;99.90;;;;;;4940451;28;20680;-70
2023/12/30 13:20:21;;;;;;;2.13;0.73;;;8.10;99.90;;;;;;4942489;29;20260;-70
2023/12/30 13:22:54;;;;;;;1.85;1.02;;;8.10;99.90;;;;;;4947256;28;20206;-70
2023/12/30 13:25:21;;;;;;;1.88;0.60;;;8.00;99.90;;;;;;4943102;29;20213;-70
2023/12/30 13:27:47;;;;;;;2.03;1.27;;;8.00;99.90;;;;;;4945284;28;20206;-70
2023/12/30 13:30:17;;;;;;;4.03;1.02;;;7.90;99.90;;;;;;4946516;28;20586;-71
2023/12/30 13:32:45;;;;;;;5.30;1.45;;;7.90;99.90;;;;;;4943155;29;20213;-70
2023/12/30 13:35:12;;;;;;;0.90;0.90;;;7.90;99.90;;;;;;4947241;29;20302;-71
2023/12/30 13:37:40;;;;;;;0.95;0.90;;;7.80;99.90;;;;;;4940948;29;20209;-72
2023/12/30 13:40:12;;;;;;;1.00;0.90;;;7.80;99.90;;;;;;4942422;28;20242;-71
2023/12/30 13:42:39;;;;;;;0.90;0.90;;;7.80;99.90;;;;;;4941624;29;20266;-71
2023/12/30 13:45:09;;;;;;;7.97;4.43;;;7.80;99.90;;;;;;4942930;28;20206;-71
2023/12/30 13:47:52;;;;;;;4.97;2.75;;;7.80;99.90;;;;;;4943196;29;20774;-71
2023/12/30 13:50:26;;;;;;;3.20;2.08;;;7.70;99.90;;;;;;4947162;28;20212;-71
2023/12/30 13:52:54;;;;;;;1.27;1.27;;;7.70;99.90;;;;;;4941773;29;20299;-71
2023/12/30 13:55:23;;;;;;;2.17;1.23;;;7.70;99.90;;;;;;4941310;29;20289;-70
2023/12/30 13:57:52;;;;;;;2.80;2.03;;;7.70;99.90;;;;;;4940623;29;20550;-70
2023/12/30 14:00:20;;;;;;;1.42;1.42;;;7.70;99.90;;;;;;4948141;28;20579;-70
2023/12/30 14:02:48;;;;;;;2.95;1.50;;;7.70;99.90;;;;;;4939428;28;20229;-70
2023/12/30 14:05:21;;;;;;;1.65;1.10;;;7.60;99.90;;;;;;4943032;28;20213;-70
2023/12/30 14:07:51;;;;;;;1.73;1.02;;;7.60;99.90;;;;;;4946352;29;20213;-70
2023/12/30 14:10:18;;;;;;;2.40;2.15;;;7.60;99.90;;;;;;4939393;29;20216;-71
2023/12/30 14:12:45;;;;;;;0.90;0.90;;;7.60;99.90;;;;;;4939014;29;20262;-71
2023/12/30 14:15:13;;;;;;;1.67;1.58;;;7.50;99.90;;;;;;4938270;28;20269;-70
2023/12/30 14:17:42;;;;;;;2.47;1.13;;;7.50;99.90;;;;;;4941037;28;20289;-71
2023/12/30 14:20:10;;;;;;;4.13;1.33;;;7.40;99.90;;;;;;4940549;28;20228;-70
2023/12/30 14:22:37;;;;;;;1.30;1.30;;;7.40;99.90;;;;;;4938963;29;20254;-70
2023/12/30 14:25:09;;;;;;;1.40;0.95;;;7.40;99.90;;;;;;4939879;29;20300;-70
2023/12/30 14:27:36;;;;;;;1.23;1.13;;;7.30;99.90;;;;;;4943182;29;20205;-69
2023/12/30 14:30:05;;;;;;;4.32;2.10;;;7.20;99.90;;;;;;4940765;28;20213;-70
2023/12/30 14:32:32;;;;;;;3.70;2.05;;;7.20;99.90;;;;;;4943471;29;20228;-71
2023/12/30 14:35:00;;;;;;;0.90;0.90;;;7.20;99.90;;;;;;4933935;28;20228;-71
2023/12/30 14:37:27;;;;;;;3.45;1.17;;;7.20;99.90;;;;;;4938052;29;20238;-71
2023/12/30 14:39:54;;;;;;;1.17;1.00;;;7.10;99.90;;;;;;4949088;29;20217;-71
2023/12/30 14:42:22;;;;;;;2.40;1.52;;;7.10;99.90;;;;;;4939561;29;20265;-71
2023/12/30 14:44:49;;;;;;;3.33;3.00;;;7.10;99.90;;;;;;4943532;29;20208;-71
2023/12/30 14:47:15;;;;;;;1.83;1.73;;;7.00;99.90;;;;;;4937926;29;20206;-70
2023/12/30 14:49:42;;;;;;;1.83;1.55;;;7.00;99.90;;;;;;4937968;29;20216;-71
2023/12/30 14:52:09;;;;;;;2.20;2.10;;;7.00;99.90;;;;;;4937492;28;20233;-71
2023/12/30 14:54:37;;;;;;;6.40;2.92;;;6.90;99.90;;;;;;4935175;29;20610;-72
2023/12/30 14:57:06;;;;;;;2.22;2.13;;;6.90;99.90;;;;;;4941889;29;20216;-70
2023/12/30 14:59:34;;;;;;;7.13;1.88;;;6.90;99.90;;;;;;4940098;29;20228;-71
2023/12/30 15:02:02;;;;;;;2.65;2.45;;;6.80;99.90;;;;;;4941980;28;20224;-71
2023/12/30 15:04:28;;;;;;;2.08;1.50;;;6.80;99.90;;;;;;4937028;29;20245;-71
2023/12/30 15:06:55;;;;;;;6.63;1.60;;;6.70;99.90;;;;;;4941727;28;20235;-71
2023/12/30 15:09:22;;;;;;;4.70;1.45;;;6.70;99.90;;;;;;4941271;29;20661;-70
2023/12/30 15:11:49;;;;;;;4.32;1.20;;;6.70;99.90;;;;;;4936569;28;20235;-70
2023/12/30 15:14:16;;;;;;;5.45;1.73;;;6.60;99.90;;;;;;4936799;29;20233;-71
2023/12/30 15:16:44;;;;;;;3.50;1.50;;;6.60;99.90;;;;;;4936024;29;20213;-70
2023/12/30 15:19:11;;;;;;;2.85;2.65;;;6.50;99.90;;;;;;4938543;29;20209;-71
2023/12/30 15:21:37;;;;;;;4.88;2.08;;;6.50;99.90;;;;;;4941897;29;20703;-70
2023/12/30 15:24:05;;;;;;;1.95;1.85;;;6.40;99.90;;;;;;4935019;29;20223;-71
2023/12/30 15:26:32;;;;;;;2.25;2.13;;;6.40;99.90;;;;;;4934973;29;20206;-70
2023/12/30 15:28:58;;;;;;;1.63;1.52;;;6.40;99.90;;;;;;4940071;28;20575;-70
2023/12/30 15:31:25;;;;;;;6.25;2.15;;;6.30;99.90;;;;;;4935627;29;20232;-70
2023/12/30 15:33:53;;;;;;;4.32;1.92;;;6.30;99.90;;;;;;4940439;29;20208;-70
2023/12/30 15:36:21;;;;;;;1.88;1.77;;;6.30;99.90;;;;;;4935541;29;20213;-71
2023/12/30 15:38:47;;;;;;;2.35;1.77;;;6.20;99.90;;;;;;4944778;29;20209;-71
2023/12/30 15:41:14;;;;;;;1.80;1.70;;;6.20;99.90;;;;;;4937809;28;20750;-70
2023/12/30 15:43:41;;;;;;;1.90;1.77;;;6.20;99.90;;;;;;4949112;29;20220;-71
2023/12/30 15:46:10;;;;;;;1.73;1.45;;;6.10;99.90;;;;;;4952032;28;20212;-70
2023/12/30 15:48:38;;;;;;;1.35;1.13;;;6.10;99.90;;;;;;4947269;28;20208;-72
2023/12/30 15:51:07;;;;;;;2.28;1.45;;;6.10;99.90;;;;;;4944047;29;20318;-70
2023/12/30 15:53:33;;;;;;;5.07;2.67;;;6.00;99.90;;;;;;4939080;28;20653;-70
2023/12/30 15:56:00;;;;;;;4.95;2.80;;;6.00;99.90;;;;;;4944479;29;20237;-69
2023/12/30 15:58:27;;;;;;;6.25;3.13;;;6.10;99.90;;;;;;4948734;29;20303;-70
2023/12/30 16:00:54;;;;;;;1.92;1.83;;;6.00;99.90;;;;;;4937921;28;20269;-68
2023/12/30 16:03:20;;;;;;;2.92;2.08;;;5.90;99.90;;;;;;4940972;29;20219;-68
2023/12/30 16:05:48;;;;;;;2.90;2.70;;;5.90;99.90;;;;;;4945294;28;20288;-69
2023/12/30 16:08:16;;;;;;;5.10;2.70;;;5.90;99.90;;;;;;4938234;29;20365;-69
2023/12/30 16:10:43;;;;;;;11.52;5.65;;;5.80;99.90;;;;;;4945641;29;20315;-68
2023/12/30 16:13:10;;;;;;;12.35;7.30;;;5.80;99.90;;;;;;4940907;28;20228;-68
2023/12/30 16:15:37;;;;;;;6.45;4.80;;;5.80;99.90;;;;;;4944258;29;20835;-68
2023/12/30 16:18:04;;;;;;;4.05;2.50;;;5.80;99.90;;;;;;4950013;28;20710;-68
2023/12/30 16:20:31;;;;;;;6.20;2.80;;;5.80;99.90;;;;;;4941198;29;20614;-68
2023/12/30 16:23:02;;;;;;;4.00;2.70;;;5.80;99.90;;;;;;4944033;29;20228;-68
2023/12/30 16:25:31;;;;;;;6.75;4.43;;;5.80;99.90;;;;;;4937895;29;20676;-68
2023/12/30 16:27:57;;;;;;;4.10;3.33;;;5.70;99.90;;;;;;4945355;28;20213;-68
2023/12/30 16:30:24;;;;;;;3.95;2.80;;;5.70;99.90;;;;;;4942594;28;20209;-68
2023/12/30 16:32:51;;;;;;;4.30;3.92;;;5.70;99.90;;;;;;4942983;29;20205;-68
2023/12/30 16:35:18;;;;;;;4.10;3.70;;;5.70;99.90;;;;;;4942173;29;20208;-68
2023/12/30 16:37:46;;;;;;;6.53;3.70;;;5.70;99.90;;;;;;4943495;28;20220;-68
2023/12/30 16:40:13;;;;;;;6.00;2.45;;;5.70;99.90;;;;;;4940099;29;20218;-68
2023/12/30 16:42:41;;;;;;;3.60;3.30;;;5.70;99.90;;;;;;4942072;28;20251;-68
2023/12/30 16:45:08;;;;;;;6.88;2.75;;;5.70;99.90;;;;;;4946543;28;20676;-69
2023/12/30 16:47:37;;;;;;;3.40;3.05;;;5.60;99.90;;;;;;4938547;29;20229;-68
2023/12/30 16:50:05;;;;;;;4.13;2.92;;;5.60;99.90;;;;;;4941485;28;20691;-68
2023/12/30 16:52:32;;;;;;;3.22;2.97;;;5.50;99.90;;;;;;4940281;28;20256;-68
2023/12/30 16:54:58;;;;;;;4.93;3.45;;;5.50;99.90;;;;;;4941662;29;20230;-68
2023/12/30 16:57:25;;;;;;;3.30;3.10;;;5.50;99.90;;;;;;4947983;28;20205;-68
2023/12/30 16:59:53;;;;;;;3.55;3.25;;;5.50;99.90;;;;;;4942597;28;20212;-70
2023/12/30 17:02:19;;;;;;;2.47;2.03;;;5.60;99.90;;;;;;4936675;29;20242;-70
2023/12/30 17:04:46;;;;;;;2.38;2.30;;;5.60;99.90;;;;;;4946828;29;20216;-70
2023/12/30 17:07:13;;;;;;;2.70;2.60;;;5.60;99.90;;;;;;4938811;28;20212;-70
2023/12/30 17:09:41;;;;;;;3.67;3.38;;;5.70;99.90;;;;;;4945301;29;20731;-70
2023/12/30 17:12:08;;;;;;;11.35;2.78;;;5.70;99.90;;;;;;4938938;28;20224;-70
2023/12/30 17:14:35;;;;;;;2.35;2.22;;;5.80;99.90;;;;;;4944684;29;20640;-70
2023/12/30 17:17:03;;;;;;;2.80;2.60;;;5.80;99.90;;;;;;4943914;29;20210;-70
2023/12/30 17:19:30;;;;;;;2.42;2.20;;;5.80;99.90;;;;;;4943313;28;20206;-71
2023/12/30 17:21:56;;;;;;;5.75;4.90;;;5.90;99.90;;;;;;4937020;28;20241;-71
2023/12/30 17:24:23;;;;;;;5.88;2.88;;;6.00;99.90;;;;;;4947627;28;20225;-70
2023/12/30 17:26:50;;;;;;;4.60;3.25;;;6.00;99.90;;;;;;4940696;28;20209;-70
2023/12/30 17:29:16;;;;;;;7.22;2.30;;;6.00;99.90;;;;;;4945730;28;20205;-70
2023/12/30 17:31:43;;;;;;;4.78;3.03;;;6.10;99.90;;;;;;4936977;29;20231;-70
2023/12/30 17:34:11;;;;;;;4.30;3.05;;;6.10;99.90;;;;;;4941189;28;20905;-70
2023/12/30 17:36:38;;;;;;;2.75;2.65;;;6.10;99.90;;;;;;4940948;29;20219;-70
2023/12/30 17:39:06;;;;;;;2.13;2.03;;;6.20;99.90;;;;;;4942252;28;20239;-71
2023/12/30 17:41:36;;;;;;;7.13;2.58;;;6.30;99.90;;;;;;4935547;29;20248;-71
2023/12/30 17:44:02;;;;;;;3.70;2.33;;;6.30;99.90;;;;;;4948678;28;20560;-71
2023/12/30 17:46:29;;;;;;;1.38;1.38;;;6.30;99.90;;;;;;4939265;29;20231;-71
2023/12/30 17:48:56;;;;;;;2.60;2.30;;;6.40;99.90;;;;;;4941231;28;20660;-70
2023/12/30 17:51:25;;;;;;;2.42;2.22;;;6.40;99.90;;;;;;4940254;29;20248;-71
2023/12/30 17:53:52;;;;;;;1.63;1.58;;;6.50;99.90;;;;;;4940085;29;20206;-70
2023/12/30 17:56:19;;;;;;;3.05;2.80;;;6.50;99.90;;;;;;4939198;28;20202;-70
2023/12/30 17:58:45;;;;;;;3.67;3.38;;;6.50;99.90;;;;;;4934414;29;20202;-70